Oakdale, NY

6:26 AM EDT on May 25, 2015 (GMT -0400)
Long Island Mac Arthur | | Change Station
CLOSE
Current Station
Airport
Location: Islip,
Elevation: 98 ft
Nearby Weather Stations

Elev 98 ft 40.79 °N, 73.10 °W | Updated 30 minutes ago

Mostly Cloudy
Mostly Cloudy
57 °F
Feels Like 57 °F
N
6
Wind Variable Wind from SW

Today
High -- | Low -- °F
--% Chance of Precip.
Yesterday
High -- | Low -- °F
Precip. -- in
5:27 AM 8:11 PM
Waxing Crescent, 47% visible
Pressure 30.27 in
Visibility 10.0 miles
Clouds Scattered Clouds 14000 ft
Scattered Clouds 18000 ft
Mostly Cloudy 25000 ft
Dew Point 54 °F
Humidity 89%
Rainfall 0.00 in
Snow Depth Not available.
UV 0 out of 12
Pollen 9.60 out of 12
Air Quality Not available.
Flu Activity Widespread
METAR KISP 250956Z 22005KT 10SM SCT140 SCT180 BKN250 14/12 A3027 RMK AO2 SLP248 FIRST AUGMENTED OBSERVATION T01390122

More Conditions Fewer Conditions

Pressure 30.27 in
Visibility 10.0 miles
Clouds Scattered Clouds 14000 ft
Scattered Clouds 18000 ft
Mostly Cloudy 25000 ft
Dew Point 54 °F
Humidity 89%
Rainfall 0.00 in
Snow Depth Not available.
UV 0 out of 12
Pollen 9.60 out of 12
Air Quality Not available.
Flu Activity Widespread
METAR KISP 250956Z 22005KT 10SM SCT140 SCT180 BKN250 14/12 A3027 RMK AO2 SLP248 FIRST AUGMENTED OBSERVATION T01390122

More Conditions Fewer Conditions

10-Day Weather Forecast

Almanac

Astronomy

May. 25, 2015 Rise Set
Actual Time
Civil Twilight
Nautical Twilight
Astronomical Twilight
Moon
Length of Visible Light
Length of Day
Tomorrow will be .
, % of the Moon is Illuminated

Today's Extremes

State Highs State Lows

Community

WunderPhotos

Upload Photos

1,823,973 photos uploaded!

WunderBlogs® & News

Nearby

Air Quality

  Air Quality AQ Index Pollutant
Not available.

Snow Depth

Station Depth Elevation

Earthquake Activity

City Distance Mag. Time & Date
Minimum magnitude displayed is 2.5.

Coastal Water Temperatures

Place Temperature

Stations

Nearby Weather Stations

Station Location Temp. Windchill Dew Point Humidity Wind Precip. Elev Updated Type